Latest Weather Observations for Latrobe Valley

IDV60801

Issued at 12:31 pm EDT Monday 22 December 2014 (issued every 30 minutes, with the page automatically refreshed every 10 minutes)

About weather observations | Map of weather stations | Latest weather observations for VIC | Other Formats
Station Details ID: 085280 Name: LATROBE VALLEY AIRPORT Lat: -38.21 Lon: 146.47 Height: 55.7 m
Data from the previous 72 hours. | See also: Recent months at Latrobe Valley
Date/Time
EDT
Temp
°C
App
Temp
°C
Dew
Point
Rel
Hum
%
Delta-T
°C
Wind Press
QNH
hPa
Press
MSL
hPa
Rain
since 9 am
mm
Dir
 
Spd
km/h
Gust
km/h
Spd
kts
Gust
kts
22/12:30pm 29.3 28.8 16.8 47 7.9 ENE 15 24 8 13 1011.2 1011.1 0.0
22/12:00pm 28.5 28.3 16.7 48 7.4 E 13 20 7 11 1011.7 1011.6 0.0
22/11:30am 28.3 27.8 16.9 50 7.1 ENE 15 24 8 13 1012.0 1011.9 0.0
22/11:00am 27.0 26.0 16.6 53 6.5 ENE 17 22 9 12 1012.3 1012.2 0.0
22/10:30am 26.0 24.5 16.3 55 6.0 NE 19 24 10 13 1012.4 1012.3 0.0
22/10:00am 25.0 24.1 15.9 57 5.6 NE 15 19 8 10 1012.5 1012.4 0.0
22/09:30am 24.2 23.3 15.9 59 5.0 NE 15 22 8 12 1012.8 1012.7 0.0
22/09:00am 23.2 22.2 14.7 58 5.0 NE 13 19 7 10 1013.1 1013.0 0.0
22/08:30am 22.3 21.8 14.9 63 4.4 NE 11 15 6 8 1013.1 1013.0 0.0
22/08:00am 20.8 20.7 14.9 69 3.5 NE 9 13 5 7 1013.1 1013.0 0.0
22/07:30am 17.1 19.0 15.8 92 0.8 CALM 0 0 0 0 1013.0 1012.9 0.0
22/07:00am 16.1 17.9 15.5 96 0.4 CALM 0 0 0 0 1012.6 1012.5 0.0
22/06:30am 13.5 14.5 13.3 99 0.1 CALM 0 0 0 0 1012.5 1012.4 0.0
22/05:30am 13.7 14.8 13.5 99 0.1 CALM 0 0 0 0 1012.2 1012.1 0.0
22/05:00am 13.1 13.9 12.5 96 0.3 CALM 0 0 0 0 1012.3 1012.2 0.0
22/04:30am 14.5 15.6 13.5 94 0.6 CALM 0 0 0 0 1012.3 1012.2 0.0
22/04:00am 15.2 16.7 14.6 96 0.3 CALM 0 0 0 0 1012.4 1012.3 0.0
22/03:30am 14.6 15.7 13.5 93 0.6 CALM 0 0 0 0 1012.5 1012.4 0.0
22/03:00am 15.3 16.4 13.5 89 1.0 CALM 0 0 0 0 1012.7 1012.6 0.0
22/02:30am 16.8 18.2 14.3 85 1.4 CALM 0 0 0 0 1012.9 1012.8 0.0
22/02:00am 17.8 19.3 14.7 82 1.8 CALM 0 0 0 0 1013.0 1012.9 0.0
22/01:30am 17.5 18.2 14.4 82 1.8 NNE 4 7 2 4 1013.3 1013.1 0.0
22/01:00am 17.8 18.7 14.1 79 2.1 SW 2 6 1 3 1013.7 1013.5 0.0
22/12:30am 17.8 18.0 14.3 80 2.0 SW 6 9 3 5 1013.7 1013.5 0.0
22/12:00am 17.6 18.9 14.1 80 2.0 CALM 0 0 0 0 1013.5 1013.3 0.0
 
Date/Time
EDT
Temp
°C
App
Temp
°C
Dew
Point
Rel
Hum
%
Delta-T
°C
Wind Press
QNH
hPa
Press
MSL
hPa
Rain
since 9 am
mm
Dir
 
Spd
km/h
Gust
km/h
Spd
kts
Gust
kts
21/11:30pm 18.9 19.4 14.0 73 2.8 NE 4 6 2 3 1013.6 1013.4 0.0
21/11:00pm 20.2 20.8 13.2 64 4.0 ESE 2 7 1 4 1013.7 1013.5 0.0
21/10:30pm 20.9 20.7 13.6 63 4.2 SE 7 9 4 5 1013.6 1013.4 0.0
21/10:00pm 20.9 21.1 14.3 66 3.9 SE 6 9 3 5 1013.4 1013.2 0.0
21/09:30pm 21.7 21.9 14.6 64 4.2 E 7 9 4 5 1013.0 1012.9 0.0
21/09:00pm 22.2 21.9 14.3 61 4.6 ENE 9 13 5 7 1012.8 1012.7 0.0
21/08:30pm 23.1 22.3 15.2 61 4.7 ENE 13 19 7 10 1012.5 1012.4 0.0
21/08:00pm 24.0 22.5 14.1 54 5.8 NE 15 22 8 12 1012.3 1012.2 0.0
21/07:30pm 24.7 23.1 15.1 55 5.8 ENE 17 24 9 13 1012.2 1012.1 0.0
21/07:00pm 25.6 23.6 15.6 54 6.1 NE 20 26 11 14 1011.8 1011.7 0.0
21/06:30pm 26.9 24.9 15.6 50 6.9 NE 20 26 11 14 1011.7 1011.6 0.0
21/06:00pm 27.7 25.8 14.3 43 8.1 NE 17 33 9 18 1011.5 1011.4 0.0
21/05:30pm 30.6 28.7 8.9 26 12.1 W 9 17 5 9 1011.5 1011.4 0.0
21/05:00pm 30.4 26.9 8.7 26 12.1 SW 17 24 9 13 1011.7 1011.6 0.0
21/04:30pm 31.1 28.0 10.4 28 11.9 SW 17 24 9 13 1012.0 1011.9 0.0
21/04:00pm 31.3 27.9 11.1 29 11.7 WNW 20 28 11 15 1012.3 1012.2 0.0
21/03:30pm 30.9 26.6 10.8 29 11.6 W 24 33 13 18 1012.6 1012.5 0.0
21/03:00pm 30.6 26.1 10.0 28 11.7 W 24 35 13 19 1012.8 1012.7 0.0
21/02:30pm 30.3 26.2 11.3 31 11.0 W 24 35 13 19 1013.0 1012.9 0.0
21/02:00pm 28.5 28.0 12.8 38 9.2 NNE 7 15 4 8 1013.7 1013.5 0.0
21/01:30pm 27.8 27.3 13.7 42 8.4 SSE 9 17 5 9 1014.1 1013.9 0.0
21/01:00pm 26.0 25.7 14.5 49 6.9 ENE 9 13 5 7 1014.4 1014.2 0.0
21/12:30pm 25.6 25.5 15.0 52 6.4 NE 9 15 5 8 1014.7 1014.5 0.0
21/12:00pm 24.5 23.9 14.6 54 5.9 ENE 11 17 6 9 1014.8 1014.6 0.0
21/11:30am 23.3 22.3 14.6 58 5.2 NE 13 22 7 12 1014.9 1014.7 0.0
21/11:00am 22.0 20.6 14.4 62 4.5 NE 15 22 8 12 1015.2 1015.1 0.0
21/10:30am 20.7 18.7 13.9 65 3.9 ENE 17 24 9 13 1015.4 1015.3 0.0
21/10:00am 20.1 18.5 13.8 67 3.6 ENE 15 20 8 11 1015.7 1015.6 0.0
21/09:30am 19.0 16.5 13.6 71 3.1 ENE 19 24 10 13 1015.9 1015.8 0.0
21/09:00am 18.1 16.3 14.4 79 2.1 ENE 17 26 9 14 1016.0 1015.9 0.0
21/08:30am 16.9 15.6 13.6 81 1.9 ENE 13 19 7 10 1016.2 1016.1 0.0
21/08:00am 14.5 14.6 14.5 100 0.0 NNE 7 11 4 6 1016.4 1016.3 0.0
21/07:30am 12.6 12.1 12.6 100 0.0 NNE 7 9 4 5 1016.3 1016.2 0.0
21/07:00am 10.9 10.1 10.9 100 0.0 NNE 6 9 3 5 1016.3 1016.2 0.0
21/06:30am 8.6 8.3 8.6 100 0.0 CALM 0 0 0 0 1016.0 1015.9 0.0
21/06:00am 8.5 8.2 8.5 100 0.0 CALM 0 0 0 0 1015.5 1015.4 0.0
21/05:30am 9.1 8.9 9.1 100 0.0 CALM 0 0 0 0 1015.3 1015.2 0.0
21/05:00am 8.8 8.5 8.8 100 0.0 CALM 0 0 0 0 1015.3 1015.2 0.0
21/04:30am 9.0 8.8 9.0 100 0.0 CALM 0 0 0 0 1015.4 1015.3 0.0
21/04:00am 9.3 9.1 9.2 99 0.0 CALM 0 0 0 0 1015.4 1015.3 0.0
21/03:30am 10.2 10.3 10.2 100 0.0 CALM 0 0 0 0 1015.6 1015.5 0.0
21/03:00am 10.7 10.9 10.5 99 0.1 CALM 0 0 0 0 1015.8 1015.7 0.0
21/02:30am 10.6 10.8 10.4 99 0.1 CALM 0 0 0 0 1016.2 1016.1 0.0
21/02:00am 10.7 10.5 10.5 99 0.1 N 2 6 1 3 1016.6 1016.5 0.0
21/01:30am 11.5 11.5 11.0 97 0.3 S 2 7 1 4 1016.9 1016.8 0.0
21/01:00am 11.2 11.4 10.4 95 0.4 CALM 0 0 0 0 1017.1 1017.0 0.0
21/12:30am 12.0 11.1 10.6 91 0.7 SE 6 9 3 5 1017.4 1017.3 0.0
21/12:00am 13.1 12.0 11.8 92 0.7 SSW 9 11 5 6 1017.5 1017.4 0.0
 
Date/Time
EDT
Temp
°C
App
Temp
°C
Dew
Point
Rel
Hum
%
Delta-T
°C
Wind Press
QNH
hPa
Press
MSL
hPa
Rain
since 9 am
mm
Dir
 
Spd
km/h
Gust
km/h
Spd
kts
Gust
kts
20/11:30pm 12.6 11.7 11.3 92 0.7 NW 7 7 4 4 1017.7 1017.6 0.0
20/11:00pm 13.1 12.4 11.3 89 1.0 N 6 7 3 4 1017.7 1017.6 0.0
20/10:30pm 14.6 15.0 11.4 81 1.7 CALM 0 6 0 3 1017.8 1017.7 0.0
20/10:00pm 15.7 14.9 11.7 77 2.2 SSW 7 9 4 5 1017.8 1017.7 0.0
20/09:30pm 16.5 15.7 11.6 73 2.7 SSW 7 11 4 6 1017.6 1017.5 0.0
20/09:00pm 17.1 15.2 11.8 71 2.9 SW 13 17 7 9 1017.4 1017.3 0.0
20/08:30pm 18.0 16.2 12.0 68 3.3 SW 13 17 7 9 1017.2 1017.1 0.0
20/08:00pm 19.4 16.4 11.9 62 4.2 SW 19 26 10 14 1017.0 1016.9 0.0
20/07:30pm 20.4 17.3 11.6 57 4.9 SW 19 24 10 13 1016.7 1016.6 0.0
20/07:00pm 20.3 15.7 11.2 56 5.0 SW 26 35 14 19 1016.4 1016.3 0.0
20/06:30pm 21.2 17.7 12.1 56 5.1 SW 22 32 12 17 1016.2 1016.1 0.0
20/06:00pm 22.2 17.9 12.2 53 5.7 SW 26 35 14 19 1016.0 1015.9 0.0
20/05:30pm 23.1 19.5 11.8 49 6.4 SSW 22 33 12 18 1015.9 1015.8 0.0
20/05:00pm 23.3 19.5 12.3 50 6.3 SW 24 33 13 18 1016.0 1015.9 0.0
20/04:30pm 23.5 20.1 11.2 46 6.9 W 20 35 11 19 1016.2 1016.1 0.0
20/04:00pm 23.4 20.5 11.1 46 6.9 W 17 28 9 15 1016.4 1016.3 0.0
20/03:30pm 22.7 18.8 10.8 47 6.6 W 22 33 12 18 1016.8 1016.7 0.0
20/03:00pm 22.8 18.6 11.2 48 6.5 WNW 24 39 13 21 1017.0 1016.9 0.0
20/02:30pm 22.2 18.8 11.3 50 6.1 W 20 32 11 17 1017.2 1017.1 0.0
20/02:00pm 21.8 18.2 10.6 49 6.1 W 20 30 11 16 1017.4 1017.3 0.0
20/01:30pm 21.9 18.3 10.7 49 6.2 W 20 32 11 17 1017.7 1017.6 0.0
20/01:00pm 20.4 16.6 9.9 51 5.6 W 20 28 11 15 1018.0 1017.9 0.0
20/12:30pm 19.9 15.8 10.0 53 5.3 W 22 30 12 16 1018.3 1018.2 0.0
20/12:00pm 20.1 15.6 11.3 57 4.8 W 26 35 14 19 1018.5 1018.4 0.0
20/11:30am 17.5 13.0 9.9 61 4.0 WNW 24 39 13 21 1018.8 1018.7 0.0
20/11:00am 17.4 12.9 10.1 62 3.9 W 24 32 13 17 1018.9 1018.8 0.0
20/10:30am 16.8 12.8 10.6 67 3.3 NW 22 30 12 16 1018.9 1018.8 0.0
20/10:00am 15.8 12.0 9.9 68 3.1 WNW 20 26 11 14 1019.1 1019.0 0.0
20/09:30am 15.3 12.1 10.1 71 2.7 W 17 20 9 11 1019.1 1019.0 0.0
20/09:00am 15.2 12.4 10.0 71 2.7 WNW 15 19 8 10 1018.8 1018.7 0.0
20/08:30am 15.0 12.5 9.6 70 2.8 NW 13 19 7 10 1018.5 1018.4 0.0
20/08:00am 14.3 11.4 9.5 73 2.5 W 15 19 8 10 1018.5 1018.4 0.0
20/07:30am 13.2 12.4 9.8 80 1.7 S 4 7 2 4 1018.3 1018.2 0.0
20/07:00am 11.8 11.8 9.9 88 1.0 CALM 0 0 0 0 1018.1 1018.0 0.0
20/06:30am 8.9 8.5 8.3 96 0.3 CALM 0 0 0 0 1018.0 1017.9 0.0
20/06:00am 8.2 7.7 7.8 97 0.2 CALM 0 0 0 0 1018.0 1017.9 0.0
20/05:30am 8.4 7.9 7.8 96 0.3 CALM 0 0 0 0 1017.8 1017.7 0.0
20/05:00am 8.0 6.3 7.4 96 0.3 SW 6 9 3 5 1017.7 1017.6 0.0
20/04:30am 8.8 7.2 8.2 96 0.3 SSW 6 7 3 4 1017.6 1017.5 0.0
20/04:00am 8.1 7.4 6.9 92 0.6 CALM 0 0 0 0 1017.5 1017.4 0.0
20/03:30am 9.6 7.8 8.0 90 0.8 SW 7 9 4 5 1017.7 1017.6 0.0
20/03:00am 9.7 8.1 8.0 89 0.8 SW 6 7 3 4 1017.9 1017.8 0.0
20/02:30am 9.6 8.1 8.4 92 0.6 SSW 6 9 3 5 1018.1 1018.0 0.0
20/02:00am 9.7 9.1 7.6 87 1.0 CALM 0 0 0 0 1018.2 1018.1 0.0
20/01:30am 10.0 9.4 7.6 85 1.2 CALM 0 0 0 0 1018.5 1018.4 0.0
20/01:00am 10.6 9.3 7.8 83 1.4 SW 4 11 2 6 1018.8 1018.7 0.0
20/12:30am 10.7 9.1 7.9 83 1.4 SSW 6 7 3 4 1019.1 1019.0 0.0
20/12:00am 10.7 9.8 7.8 82 1.4 W 2 6 1 3 1019.3 1019.2 0.0
 
Date/Time
EDT
Temp
°C
App
Temp
°C
Dew
Point
Rel
Hum
%
Delta-T
°C
Wind Press
QNH
hPa
Press
MSL
hPa
Rain
since 9 am
mm
Dir
 
Spd
km/h
Gust
km/h
Spd
kts
Gust
kts
19/11:30pm 10.8 7.7 7.3 79 1.7 WNW 13 17 7 9 1019.4 1019.3 0.0
19/11:00pm 11.5 8.1 7.6 77 1.9 WNW 15 19 8 10 1019.5 1019.4 0.0
19/10:30pm 11.9 8.6 8.0 77 1.9 WSW 15 19 8 10 1019.5 1019.4 0.0
19/10:00pm 12.3 8.9 7.6 73 2.3 WSW 15 19 8 10 1019.6 1019.5 0.0
19/09:30pm 13.3 9.2 7.7 69 2.8 WSW 19 24 10 13 1019.2 1019.1 0.0
19/09:00pm 14.1 8.9 7.2 63 3.4 SW 24 32 13 17 1019.0 1018.9 0.0
19/08:30pm 14.9 9.6 7.0 59 3.9 SW 24 30 13 16 1018.7 1018.6 0.0
19/08:00pm 16.3 10.7 7.0 54 4.6 SW 26 33 14 18 1018.5 1018.4 0.0
19/07:30pm 17.0 11.6 6.5 50 5.2 SW 24 30 13 16 1018.0 1017.9 0.0
19/07:00pm 17.5 11.4 6.4 48 5.5 SW 28 35 15 19 1017.5 1017.4 0.0
19/06:30pm 18.5 12.6 6.0 44 6.2 WSW 26 35 14 19 1017.3 1017.2 0.0
19/06:00pm 18.4 11.1 5.6 43 6.2 SW 33 41 18 22 1017.1 1017.0 0.0
19/05:30pm 18.6 13.0 7.1 47 5.8 SW 26 37 14 20 1016.9 1016.8 0.0
19/05:00pm 19.2 13.2 7.0 45 6.2 SW 28 35 15 19 1016.6 1016.5 0.0
19/04:30pm 19.5 13.8 6.9 44 6.4 SW 26 37 14 20 1016.6 1016.5 0.0
19/04:00pm 19.0 13.3 6.5 44 6.2 SW 26 35 14 19 1016.5 1016.4 0.0
19/03:30pm 19.3 13.9 8.0 48 5.8 SW 26 37 14 20 1016.5 1016.4 0.0
19/03:00pm 19.6 14.3 8.6 49 5.7 SW 26 39 14 21 1016.6 1016.5 0.0
19/02:30pm 19.1 13.7 8.1 49 5.7 SW 26 37 14 20 1016.3 1016.2 0.0
19/02:00pm 20.6 14.6 6.9 41 7.0 SW 28 37 15 20 1016.2 1016.1 0.0
19/01:30pm 19.7 14.3 7.8 46 6.1 SW 26 35 14 19 1016.3 1016.2 0.0
19/01:00pm 19.5 14.1 6.3 42 6.6 SW 24 37 13 20 1016.2 1016.1 0.0

Other Formats:

Comma delimited format used in spreadsheet applications
http://www.bom.gov.au/fwo/IDV60801/IDV60801.94891.axf

JavaScript Object Notation format (JSON) in row-major order
http://www.bom.gov.au/fwo/IDV60801/IDV60801.94891.json